Cobble Hill, Canada
Current Conditions -  °F | °C
As of 4:32 AM on Saturday 25 Oct 2014 (Local Time) from CYYJ Reporting Station
Light Rain Light Rain  
Wind Chill: 45°   Ceiling: 1000
Heat Index: 48°   Visibility: 1.2mi
Dew Point: 46°   Wind: 7mph
Humidity: 93%   Direction: 360°N
Pressure: 29.6"   Gusts: NA
Location:  48.68°N, 123.6°W
Report Text: CYYJ 251132Z 36006KT 1 1/4SM -RA BR SCT005 BKN010 OVC016 09/08 A2960 RMK SF4SC1SC3 SLP024
Loading
Personal Weather Stations






























Interactive Weather Map
Tropical Storm Tracking
New forecast layout! Learn more

10-Day Weather Forecast

Advertisements
Track Severe Weather on mobile